createdAt,value
2022-09-05T00:09:19.403Z,100502.82
2022-09-05T00:24:23.042Z,100508.11
2022-09-05T00:31:07.158Z,100503.83
2022-09-05T00:40:43.857Z,100506.28
2022-09-05T00:51:21.827Z,100508.55
2022-09-05T01:01:49.527Z,100506.86
2022-09-05T01:12:07.343Z,100508.52
2022-09-05T01:22:37.097Z,100506.73
2022-09-05T01:32:58.754Z,100517.73
2022-09-05T01:43:25.680Z,100529.52
2022-09-05T01:53:43.726Z,100536.77
2022-09-05T02:03:54.614Z,100539.06
2022-09-05T02:14:08.957Z,100534.69
2022-09-05T02:24:23.199Z,100541.16
2022-09-05T02:34:39.197Z,100544.25
2022-09-05T02:45:25.680Z,100545.25
2022-09-05T02:57:39.948Z,100534.92
2022-09-05T03:06:34.356Z,100531.51
2022-09-05T03:17:06.733Z,100530.31
2022-09-05T03:38:11.094Z,100542.16
2022-09-05T03:48:37.966Z,100543.19
2022-09-05T03:59:09.759Z,100556.82
2022-09-05T04:09:43.302Z,100562.64
2022-09-05T04:19:53.667Z,100568.66
2022-09-05T04:30:34.835Z,100577.95
2022-09-05T04:40:46.903Z,100584.26
2022-09-05T04:51:11.445Z,100592.04
2022-09-05T05:06:00.770Z,100607.98
2022-09-05T05:17:23.889Z,100608.91
2022-09-05T05:22:23.349Z,100617.22
2022-09-05T05:32:45.195Z,100609.14
2022-09-05T05:42:52.825Z,100597.79
2022-09-05T05:53:31.961Z,100599.19
2022-09-05T06:04:21.854Z,100606.27
2022-09-05T06:15:11.498Z,100611.23
2022-09-05T06:25:52.250Z,100619.91
2022-09-05T06:36:08.216Z,100614.21
2022-09-05T06:46:55.014Z,100615.15
2022-09-05T06:57:14.725Z,100620.80
2022-09-05T07:07:27.912Z,100633.33
2022-09-05T07:18:08.917Z,100633.10
2022-09-05T07:28:28.950Z,100628.85
2022-09-05T07:38:52.329Z,100632.09
2022-09-05T07:49:05.736Z,100640.15
2022-09-05T07:59:14.330Z,100649.36
2022-09-05T08:10:06.050Z,100650.45
2022-09-05T08:20:08.957Z,100658.11
2022-09-05T08:30:26.449Z,100661.58
2022-09-05T08:40:37.301Z,100656.43
2022-09-05T08:51:04.316Z,100646.76
2022-09-05T09:01:19.210Z,100646.55
2022-09-05T09:11:34.349Z,100639.45
2022-09-05T09:21:52.791Z,100638.83
2022-09-05T09:32:07.682Z,100636.77
2022-09-05T09:42:34.263Z,100628.33
2022-09-05T09:53:06.887Z,100623.05
2022-09-05T10:10:32.817Z,100620.11
2022-09-05T10:14:50.603Z,100616.99
2022-09-05T10:25:20.260Z,100614.53
2022-09-05T10:35:32.599Z,100606.25
2022-09-05T10:45:49.679Z,100602.58
2022-09-05T10:56:12.482Z,100595.24
2022-09-05T11:06:24.862Z,100590.66
2022-09-05T11:16:40.254Z,100583.92
2022-09-05T11:27:23.229Z,100580.73
2022-09-05T11:39:56.264Z,100570.39
2022-09-05T11:48:20.890Z,100559.89
2022-09-05T11:58:48.459Z,100559.08
2022-09-05T12:09:02.532Z,100557.02
2022-09-05T12:19:26.921Z,100559.77
2022-09-05T12:29:45.558Z,100554.66
2022-09-05T12:41:39.082Z,100542.10
2022-09-05T12:50:33.330Z,100532.83
2022-09-05T13:03:12.459Z,100523.16
2022-09-05T13:14:47.882Z,100524.11
2022-09-05T13:21:44.591Z,100521.73
2022-09-05T13:38:03.339Z,100517.42
2022-09-05T13:42:45.447Z,100512.78
2022-09-05T13:52:57.230Z,100512.55
2022-09-05T14:03:43.275Z,100506.44
2022-09-05T14:14:11.245Z,100497.39
2022-09-05T14:24:17.226Z,100493.11
2022-09-05T14:37:40.628Z,100489.48
2022-09-05T14:46:00.377Z,100491.52
2022-09-05T14:57:11.557Z,100476.21
2022-09-05T15:06:38.126Z,100471.94
2022-09-05T15:17:01.276Z,100467.22
2022-09-05T15:27:16.894Z,100460.04
2022-09-05T15:37:31.360Z,100456.61
2022-09-05T15:47:39.582Z,100451.64
2022-09-05T15:57:46.728Z,100450.70
2022-09-05T16:10:41.557Z,100448.27
2022-09-05T16:23:16.885Z,100439.74
2022-09-05T16:28:58.008Z,100436.05
2022-09-05T16:39:08.925Z,100430.55
2022-09-05T16:49:29.677Z,100432.66
2022-09-05T16:59:47.795Z,100430.55
2022-09-05T17:09:53.814Z,100427.44
2022-09-05T17:20:07.070Z,100421.05
2022-09-05T17:41:10.624Z,100435.45
2022-09-05T17:51:38.355Z,100448.13
2022-09-05T18:02:29.853Z,100451.18
2022-09-05T18:13:13.458Z,100459.20
2022-09-05T18:23:39.622Z,100456.73
2022-09-05T18:34:38.195Z,100460.27
2022-09-05T18:44:49.539Z,100464.24
2022-09-05T18:55:30.161Z,100466.70
2022-09-05T19:05:41.792Z,100470.09
2022-09-05T19:16:03.669Z,100467.61
2022-09-05T19:26:22.223Z,100460.14
2022-09-05T19:36:55.591Z,100455.17
2022-09-05T19:47:44.059Z,100450.96
2022-09-05T19:57:25.659Z,100453.68
2022-09-05T20:07:33.238Z,100445.57
2022-09-05T20:17:43.145Z,100440.52
2022-09-05T20:27:50.590Z,100435.17
2022-09-05T20:43:15.901Z,100428.85
2022-09-05T20:54:07.911Z,100421.90
2022-09-05T20:58:55.663Z,100417.90
2022-09-05T21:09:25.318Z,100419.27
2022-09-05T21:19:33.822Z,100422.33
2022-09-05T21:29:40.059Z,100419.03
2022-09-05T21:39:59.436Z,100419.54
2022-09-05T21:50:07.555Z,100415.63
2022-09-05T22:00:20.531Z,100419.58
2022-09-05T22:10:35.441Z,100418.23
2022-09-05T22:21:31.961Z,100414.29
2022-09-05T22:31:20.573Z,100407.95
2022-09-05T22:41:30.191Z,100406.11
2022-09-05T22:51:37.184Z,100407.80
2022-09-05T23:01:43.812Z,100408.85
2022-09-05T23:11:49.748Z,100399.11
2022-09-05T23:21:55.647Z,100396.17
2022-09-05T23:32:01.483Z,100387.19
2022-09-05T23:42:07.542Z,100386.59
2022-09-05T23:52:13.474Z,100390.44
